createdAt,value
2018-01-21T00:02:04.754Z,17.47
2018-01-21T00:04:30.528Z,17.53
2018-01-21T00:06:56.361Z,17.48
2018-01-21T00:09:22.133Z,17.56
2018-01-21T00:11:48.757Z,17.53
2018-01-21T00:14:14.538Z,17.49
2018-01-21T00:16:40.329Z,17.38
2018-01-21T00:19:06.109Z,17.43
2018-01-21T00:21:31.933Z,17.44
2018-01-21T00:23:58.014Z,17.39
2018-01-21T00:26:24.065Z,17.42
2018-01-21T00:28:49.846Z,17.39
2018-01-21T00:31:15.765Z,17.48
2018-01-21T00:33:41.537Z,17.56
2018-01-21T00:36:07.317Z,17.36
2018-01-21T00:38:33.093Z,17.25
2018-01-21T00:40:58.874Z,17.39
2018-01-21T00:43:24.644Z,17.35
2018-01-21T00:45:50.556Z,17.40
2018-01-21T00:48:17.382Z,17.46
2018-01-21T00:50:44.165Z,17.44
2018-01-21T00:53:10.868Z,17.62
2018-01-21T00:55:36.681Z,17.69
2018-01-21T00:58:02.510Z,17.62
2018-01-21T01:00:29.257Z,17.71
2018-01-21T01:02:55.025Z,17.66
2018-01-21T01:05:21.037Z,17.56
2018-01-21T01:07:47.069Z,17.58
2018-01-21T01:10:12.841Z,17.60
2018-01-21T01:12:38.721Z,17.59
2018-01-21T01:15:04.497Z,17.66
2018-01-21T01:17:30.276Z,17.58
2018-01-21T01:19:56.057Z,17.60
2018-01-21T01:22:21.883Z,17.52
2018-01-21T01:24:47.713Z,17.49
2018-01-21T01:27:13.497Z,17.41
2018-01-21T01:29:40.281Z,17.47
2018-01-21T01:32:07.076Z,17.43
2018-01-21T01:34:33.862Z,17.47
2018-01-21T01:36:59.686Z,17.49
2018-01-21T01:39:25.461Z,17.49
2018-01-21T01:41:51.229Z,17.43
2018-01-21T01:44:17.065Z,17.41
2018-01-21T01:46:42.956Z,17.38
2018-01-21T01:49:08.972Z,17.32
2018-01-21T01:51:34.786Z,17.29
2018-01-21T01:54:00.613Z,17.35
2018-01-21T01:56:26.397Z,17.36
2018-01-21T01:58:52.167Z,17.29
2018-01-21T02:01:17.938Z,17.36
2018-01-21T02:03:43.709Z,17.40
2018-01-21T02:06:09.699Z,17.38
2018-01-21T02:08:35.480Z,17.46
2018-01-21T02:11:01.378Z,17.41
2018-01-21T02:13:27.167Z,17.43
2018-01-21T02:15:52.940Z,17.46
2018-01-21T02:18:18.717Z,17.53
2018-01-21T02:20:44.625Z,17.38
2018-01-21T02:23:10.405Z,17.38
2018-01-21T02:25:36.893Z,17.38
2018-01-21T02:28:02.925Z,17.48
2018-01-21T02:30:28.937Z,17.39
2018-01-21T02:32:54.724Z,17.44
2018-01-21T02:38:06.069Z,17.34
2018-01-21T02:40:31.851Z,17.30
2018-01-21T02:42:57.637Z,17.33
2018-01-21T02:45:23.421Z,17.28
2018-01-21T02:47:49.491Z,17.32
2018-01-21T02:50:15.273Z,17.45
2018-01-21T02:52:41.061Z,17.53
2018-01-21T02:55:06.853Z,17.53
2018-01-21T02:57:32.669Z,17.49
2018-01-21T02:59:58.453Z,17.52
2018-01-21T03:02:24.237Z,17.49
2018-01-21T03:04:50.038Z,17.40
2018-01-21T03:07:15.946Z,17.50
2018-01-21T03:09:41.970Z,17.56
2018-01-21T03:12:07.770Z,17.62
2018-01-21T03:14:33.549Z,17.58
2018-01-21T03:16:59.385Z,17.57
2018-01-21T03:19:25.165Z,17.53
2018-01-21T03:21:50.949Z,17.50
2018-01-21T03:24:16.744Z,17.44
2018-01-21T03:26:42.530Z,17.27
2018-01-21T03:29:08.314Z,17.36
2018-01-21T03:31:34.098Z,17.41
2018-01-21T03:33:59.906Z,17.30
2018-01-21T03:36:25.693Z,17.33
2018-01-21T03:38:51.477Z,17.39
2018-01-21T03:41:17.259Z,17.35
2018-01-21T03:43:43.206Z,17.40
2018-01-21T03:46:08.990Z,17.36
2018-01-21T03:48:34.773Z,17.48
2018-01-21T03:51:00.598Z,17.46
2018-01-21T03:53:26.422Z,17.42
2018-01-21T03:55:52.312Z,17.43
2018-01-21T03:58:18.117Z,17.35
2018-01-21T04:00:43.913Z,17.36
2018-01-21T04:03:09.689Z,17.35
2018-01-21T04:05:35.473Z,17.37
2018-01-21T04:08:01.412Z,17.35
2018-01-21T04:10:27.261Z,17.35
2018-01-21T04:12:53.065Z,17.30
2018-01-21T04:15:18.858Z,17.34
2018-01-21T04:17:44.636Z,17.41
2018-01-21T04:20:10.417Z,17.36
2018-01-21T04:22:36.205Z,17.32
2018-01-21T04:25:01.993Z,17.41
2018-01-21T04:27:27.811Z,17.29
2018-01-21T04:29:53.873Z,17.47
2018-01-21T04:32:19.657Z,17.44
2018-01-21T04:34:45.437Z,17.42
2018-01-21T04:37:11.225Z,17.40
2018-01-21T04:39:37.013Z,17.37
2018-01-21T04:42:02.788Z,17.49
2018-01-21T04:44:28.564Z,17.45
2018-01-21T04:46:54.352Z,17.45
2018-01-21T04:49:20.133Z,17.37
2018-01-21T04:51:45.990Z,17.42
2018-01-21T04:54:18.796Z,17.43
2018-01-21T04:56:44.586Z,17.46
2018-01-21T04:59:10.493Z,17.39
2018-01-21T05:01:36.277Z,17.55
2018-01-21T05:04:02.093Z,17.54
2018-01-21T05:06:27.877Z,17.53
2018-01-21T05:08:53.668Z,17.47
2018-01-21T05:11:19.484Z,17.54
2018-01-21T05:13:45.401Z,17.50
2018-01-21T05:16:11.254Z,17.44
2018-01-21T05:18:37.072Z,17.58
2018-01-21T05:21:02.893Z,17.47
2018-01-21T05:23:28.668Z,17.45
2018-01-21T05:25:54.657Z,17.48
2018-01-21T05:28:20.433Z,17.49
2018-01-21T05:30:46.415Z,17.43
2018-01-21T05:33:12.225Z,17.44
2018-01-21T05:35:38.013Z,17.41
2018-01-21T05:38:03.902Z,17.39
2018-01-21T05:40:29.692Z,17.57
2018-01-21T05:42:55.477Z,17.49
2018-01-21T05:45:21.267Z,17.58
2018-01-21T05:47:47.053Z,17.45
2018-01-21T05:50:12.877Z,17.46
2018-01-21T05:52:38.693Z,17.45
2018-01-21T05:55:04.499Z,17.42
2018-01-21T05:57:30.292Z,17.27
2018-01-21T05:59:56.078Z,17.48
2018-01-21T06:02:21.906Z,17.40
2018-01-21T06:04:47.701Z,17.56
2018-01-21T06:07:13.518Z,17.64
2018-01-21T06:09:39.301Z,17.54
2018-01-21T06:12:05.074Z,17.57
2018-01-21T06:14:30.993Z,17.45
2018-01-21T06:16:56.772Z,17.40
2018-01-21T06:19:22.609Z,17.40
2018-01-21T06:21:48.389Z,17.46
2018-01-21T06:24:14.221Z,17.48
2018-01-21T06:26:40.206Z,17.40
2018-01-21T06:29:05.984Z,17.51
2018-01-21T06:31:31.806Z,17.36
2018-01-21T06:33:57.609Z,17.40
2018-01-21T06:36:23.389Z,17.55
2018-01-21T06:38:49.178Z,17.47
2018-01-21T06:41:14.960Z,17.50
2018-01-21T06:43:40.758Z,17.46
2018-01-21T06:46:06.585Z,17.31
2018-01-21T06:48:32.365Z,17.37
2018-01-21T06:50:58.136Z,17.48
2018-01-21T06:53:23.919Z,17.50
2018-01-21T06:55:49.693Z,17.54
2018-01-21T06:58:15.549Z,17.59
2018-01-21T07:00:41.365Z,17.61
2018-01-21T07:03:07.141Z,17.70
2018-01-21T07:05:32.932Z,17.46
2018-01-21T07:07:58.878Z,17.42
2018-01-21T07:10:24.661Z,17.48
2018-01-21T07:12:50.500Z,17.60
2018-01-21T07:15:16.287Z,17.65
2018-01-21T07:17:42.078Z,17.59
2018-01-21T07:20:07.978Z,17.66
2018-01-21T07:22:33.758Z,17.60
2018-01-21T07:24:59.577Z,17.60
2018-01-21T07:27:25.382Z,17.39
2018-01-21T07:29:51.304Z,17.53
2018-01-21T07:32:17.082Z,17.52
2018-01-21T07:34:43.026Z,17.62
2018-01-21T07:37:08.871Z,17.49
2018-01-21T07:39:34.689Z,17.48
2018-01-21T07:42:00.608Z,17.49
2018-01-21T07:44:26.389Z,17.54
2018-01-21T07:46:52.234Z,17.57
2018-01-21T07:49:18.066Z,17.57
2018-01-21T07:51:44.005Z,17.52
2018-01-21T07:54:09.946Z,17.54
2018-01-21T07:56:35.732Z,17.53
2018-01-21T07:59:01.540Z,17.45
2018-01-21T08:01:27.339Z,17.45
2018-01-21T08:03:53.121Z,17.49
2018-01-21T08:06:18.936Z,17.41
2018-01-21T08:08:44.829Z,17.41
2018-01-21T08:11:10.705Z,17.33
2018-01-21T08:13:36.542Z,17.43
2018-01-21T08:16:02.507Z,17.47
2018-01-21T08:18:28.294Z,17.64
2018-01-21T08:20:54.128Z,17.58
2018-01-21T08:23:19.905Z,17.49
2018-01-21T08:25:45.773Z,17.73
2018-01-21T08:28:11.615Z,17.37
2018-01-21T08:30:37.527Z,17.34
2018-01-21T08:33:03.322Z,17.46
2018-01-21T08:38:33.302Z,17.44
2018-01-21T08:41:05.253Z,17.41
2018-01-21T08:43:31.301Z,17.34
2018-01-21T08:45:57.202Z,17.46
2018-01-21T08:48:23.034Z,17.62
2018-01-21T08:50:48.833Z,17.19
2018-01-21T08:53:16.282Z,17.28
2018-01-21T08:55:42.106Z,16.99
2018-01-21T08:58:08.035Z,16.87
2018-01-21T09:00:33.808Z,17.08
2018-01-21T09:02:59.765Z,17.41
2018-01-21T09:05:25.674Z,17.50
2018-01-21T09:07:51.462Z,17.54
2018-01-21T09:10:17.242Z,17.58
2018-01-21T09:12:43.105Z,17.48
2018-01-21T09:15:08.897Z,17.59
2018-01-21T09:17:34.927Z,17.51
2018-01-21T09:20:00.813Z,17.51
2018-01-21T09:22:26.779Z,17.46
2018-01-21T09:24:52.661Z,17.54
2018-01-21T09:27:18.442Z,17.56
2018-01-21T09:29:44.304Z,17.46
2018-01-21T09:32:10.270Z,17.43
2018-01-21T09:34:36.146Z,17.50
2018-01-21T09:37:01.922Z,17.70
2018-01-21T09:39:27.892Z,17.29
2018-01-21T09:41:53.665Z,17.09
2018-01-21T09:44:19.627Z,17.08
2018-01-21T09:46:45.401Z,17.04
2018-01-21T09:49:11.189Z,17.02
2018-01-21T09:51:36.974Z,17.05
2018-01-21T09:54:02.758Z,16.84
2018-01-21T09:56:28.570Z,16.79
2018-01-21T09:58:54.354Z,16.80
2018-01-21T10:01:20.273Z,16.95
2018-01-21T10:03:46.046Z,16.80
2018-01-21T10:06:11.881Z,16.82
2018-01-21T10:08:37.936Z,16.91
2018-01-21T10:11:03.859Z,16.97
2018-01-21T10:13:30.078Z,16.76
2018-01-21T10:15:55.869Z,16.74
2018-01-21T10:18:21.702Z,16.73
2018-01-21T10:20:47.485Z,16.81
2018-01-21T10:23:13.270Z,16.79
2018-01-21T10:25:39.057Z,16.74
2018-01-21T10:28:05.009Z,16.58
2018-01-21T10:30:30.932Z,16.60
2018-01-21T10:32:56.855Z,16.71
2018-01-21T10:35:23.045Z,16.72
2018-01-21T10:37:48.826Z,16.85
2018-01-21T10:40:14.730Z,16.72
2018-01-21T10:42:40.526Z,16.54
2018-01-21T10:45:06.306Z,16.53
2018-01-21T10:47:32.083Z,16.64
2018-01-21T10:49:58.396Z,16.56
2018-01-21T10:52:24.210Z,16.60
2018-01-21T10:54:50.081Z,16.79
2018-01-21T10:57:15.882Z,16.74
2018-01-21T10:59:41.834Z,16.75
2018-01-21T11:02:07.613Z,16.89
2018-01-21T11:04:33.401Z,16.92
2018-01-21T11:06:59.354Z,17.07
2018-01-21T11:09:25.138Z,17.08
2018-01-21T11:11:50.977Z,17.08
2018-01-21T11:14:16.785Z,17.06
2018-01-21T11:16:42.635Z,17.07
2018-01-21T11:19:08.433Z,17.09
2018-01-21T11:21:34.354Z,17.12
2018-01-21T11:24:00.318Z,17.22
2018-01-21T11:26:26.102Z,17.25
2018-01-21T11:28:52.046Z,17.24
2018-01-21T11:31:18.105Z,17.10
2018-01-21T11:33:43.967Z,17.15
2018-01-21T11:36:09.789Z,17.27
2018-01-21T11:38:35.622Z,17.22
2018-01-21T11:41:01.409Z,17.27
2018-01-21T11:43:27.238Z,17.23
2018-01-21T11:45:53.043Z,17.13
2018-01-21T11:48:19.052Z,17.21
2018-01-21T11:50:44.856Z,17.28
2018-01-21T11:53:10.710Z,17.26
2018-01-21T11:55:37.647Z,17.25
2018-01-21T11:58:04.298Z,17.34
2018-01-21T12:00:30.133Z,17.31
2018-01-21T12:02:55.962Z,17.29
2018-01-21T12:05:21.781Z,17.31
2018-01-21T12:07:47.614Z,17.40
2018-01-21T12:10:13.583Z,17.44
2018-01-21T12:12:39.372Z,17.39
2018-01-21T12:15:05.198Z,17.37
2018-01-21T12:17:31.110Z,17.36
2018-01-21T12:19:56.929Z,17.38
2018-01-21T12:22:22.755Z,17.33
2018-01-21T12:24:48.574Z,17.44
2018-01-21T12:27:14.379Z,17.41
2018-01-21T12:29:40.309Z,17.37
2018-01-21T12:32:06.288Z,17.29
2018-01-21T12:34:32.485Z,17.21
2018-01-21T12:36:58.382Z,17.32
2018-01-21T12:39:24.194Z,17.24
2018-01-21T12:41:50.014Z,17.35
2018-01-21T12:44:15.793Z,17.33
2018-01-21T12:46:41.622Z,17.31
2018-01-21T12:49:07.426Z,17.35
2018-01-21T12:51:33.429Z,17.34
2018-01-21T12:53:59.227Z,17.43
2018-01-21T12:56:25.017Z,17.59
2018-01-21T12:58:50.837Z,17.46
2018-01-21T13:01:16.621Z,17.47
2018-01-21T13:03:42.442Z,17.43
2018-01-21T13:06:08.225Z,17.49
2018-01-21T13:08:34.043Z,17.57
2018-01-21T13:10:59.954Z,17.53
2018-01-21T13:13:25.953Z,17.58
2018-01-21T13:15:51.985Z,17.47
2018-01-21T13:18:17.766Z,17.35
2018-01-21T13:20:43.583Z,17.47
2018-01-21T13:23:09.386Z,17.51
2018-01-21T13:25:35.222Z,17.56
2018-01-21T13:28:01.007Z,17.57
2018-01-21T13:30:26.818Z,17.48
2018-01-21T13:32:52.893Z,17.48
2018-01-21T13:35:18.678Z,17.51
2018-01-21T13:37:44.509Z,17.40
2018-01-21T13:40:10.303Z,17.49
2018-01-21T13:42:36.089Z,17.56
2018-01-21T13:45:01.952Z,17.59
2018-01-21T13:47:27.965Z,17.52
2018-01-21T13:49:53.747Z,17.38
2018-01-21T13:52:19.524Z,17.49
2018-01-21T13:54:45.487Z,17.59
2018-01-21T13:57:11.614Z,17.55
2018-01-21T13:59:37.393Z,17.46
2018-01-21T14:02:03.247Z,17.41
2018-01-21T14:04:29.201Z,17.42
2018-01-21T14:06:55.005Z,17.50
2018-01-21T14:09:20.960Z,17.56
2018-01-21T14:11:46.793Z,17.65
2018-01-21T14:14:12.572Z,17.65
2018-01-21T14:16:38.370Z,17.57
2018-01-21T14:19:04.270Z,17.55
2018-01-21T14:21:30.085Z,17.58
2018-01-21T14:23:55.989Z,17.72
2018-01-21T14:26:21.831Z,17.62
2018-01-21T14:28:47.681Z,17.66
2018-01-21T14:31:13.649Z,17.60
2018-01-21T14:33:39.464Z,17.57
2018-01-21T14:36:05.473Z,17.55
2018-01-21T14:38:31.290Z,17.67
2018-01-21T14:40:57.073Z,17.72
2018-01-21T14:43:22.850Z,17.47
2018-01-21T14:45:48.670Z,17.51
2018-01-21T14:48:14.442Z,17.43
2018-01-21T14:50:40.260Z,17.52
2018-01-21T14:53:06.042Z,17.62
2018-01-21T14:55:32.097Z,17.63
2018-01-21T14:57:57.976Z,17.64
2018-01-21T15:00:23.805Z,17.57
2018-01-21T15:02:49.591Z,17.58
2018-01-21T15:05:15.373Z,17.52
2018-01-21T15:07:41.208Z,17.48
2018-01-21T15:10:07.000Z,17.55
2018-01-21T15:12:32.821Z,17.68
2018-01-21T15:14:58.897Z,17.60
2018-01-21T15:17:24.712Z,17.62
2018-01-21T15:19:50.648Z,17.60
2018-01-21T15:22:16.465Z,17.59
2018-01-21T15:24:42.277Z,17.58
2018-01-21T15:27:08.063Z,17.65
2018-01-21T15:29:33.876Z,17.61
2018-01-21T15:31:59.660Z,17.56
2018-01-21T15:34:25.474Z,17.55
2018-01-21T15:36:51.275Z,17.59
2018-01-21T15:39:17.081Z,17.46
2018-01-21T15:41:42.897Z,17.43
2018-01-21T15:44:08.676Z,17.47
2018-01-21T15:46:34.502Z,17.58
2018-01-21T15:49:00.317Z,17.56
2018-01-21T15:51:26.156Z,17.57
2018-01-21T15:53:51.977Z,17.67
2018-01-21T15:56:18.121Z,17.59
2018-01-21T15:58:43.919Z,17.65
2018-01-21T16:01:09.697Z,17.74
2018-01-21T16:03:35.717Z,17.63
2018-01-21T16:06:01.558Z,17.71
2018-01-21T16:08:27.341Z,17.81
2018-01-21T16:10:53.199Z,17.68
2018-01-21T16:13:19.133Z,17.53
2018-01-21T16:15:44.941Z,17.63
2018-01-21T16:18:10.754Z,17.58
2018-01-21T16:20:36.539Z,17.57
2018-01-21T16:23:02.382Z,17.57
2018-01-21T16:25:28.303Z,17.63
2018-01-21T16:27:54.085Z,17.65
2018-01-21T16:30:19.913Z,17.54
2018-01-21T16:32:45.695Z,17.53
2018-01-21T16:35:11.464Z,17.60
2018-01-21T16:37:43.474Z,17.63
2018-01-21T16:40:09.253Z,17.57
2018-01-21T16:42:35.044Z,17.58
2018-01-21T16:45:00.829Z,17.59
2018-01-21T16:47:26.672Z,17.56
2018-01-21T16:49:52.471Z,17.66
2018-01-21T16:52:18.339Z,17.67
2018-01-21T16:54:44.121Z,17.64
2018-01-21T16:57:10.004Z,17.51
2018-01-21T16:59:35.784Z,17.59
2018-01-21T17:02:01.622Z,17.68
2018-01-21T17:04:27.445Z,17.63
2018-01-21T17:06:53.237Z,17.70
2018-01-21T17:09:19.019Z,17.57
2018-01-21T17:11:44.805Z,17.58
2018-01-21T17:14:10.590Z,17.49
2018-01-21T17:16:36.372Z,17.50
2018-01-21T17:19:02.152Z,17.46
2018-01-21T17:21:27.933Z,17.54
2018-01-21T17:23:53.881Z,17.58
2018-01-21T17:26:19.694Z,17.64
2018-01-21T17:28:45.598Z,17.62
2018-01-21T17:31:11.390Z,17.59
2018-01-21T17:33:37.579Z,17.62
2018-01-21T17:36:03.561Z,17.60
2018-01-21T17:38:29.476Z,17.53
2018-01-21T17:40:55.266Z,17.63
2018-01-21T17:43:21.084Z,17.57
2018-01-21T17:45:46.873Z,17.56
2018-01-21T17:48:12.686Z,17.46
2018-01-21T17:50:38.473Z,17.48
2018-01-21T17:53:04.602Z,17.63
2018-01-21T17:55:30.414Z,17.71
2018-01-21T17:57:56.245Z,17.66
2018-01-21T18:00:22.036Z,17.62
2018-01-21T18:02:47.829Z,17.62
2018-01-21T18:05:13.810Z,17.58
2018-01-21T18:07:39.795Z,17.61
2018-01-21T18:10:05.707Z,17.67
2018-01-21T18:12:31.529Z,17.67
2018-01-21T18:14:57.310Z,17.59
2018-01-21T18:17:23.171Z,17.58
2018-01-21T18:19:49.104Z,17.59
2018-01-21T18:22:14.938Z,17.53
2018-01-21T18:24:40.733Z,17.63
2018-01-21T18:27:06.556Z,17.67
2018-01-21T18:29:32.446Z,17.70
2018-01-21T18:31:58.229Z,17.62
2018-01-21T18:34:24.077Z,17.48
2018-01-21T18:36:49.993Z,17.50
2018-01-21T18:39:15.996Z,17.53
2018-01-21T18:41:42.206Z,17.49
2018-01-21T18:44:08.287Z,17.44
2018-01-21T18:46:34.086Z,17.54
2018-01-21T18:48:59.950Z,17.49
2018-01-21T18:51:25.774Z,17.65
2018-01-21T18:53:51.565Z,17.56
2018-01-21T18:56:17.342Z,17.63
2018-01-21T18:58:46.580Z,17.74
2018-01-21T19:01:12.418Z,17.79
2018-01-21T19:03:38.234Z,17.72
2018-01-21T19:06:04.010Z,17.61
2018-01-21T19:08:29.834Z,17.60
2018-01-21T19:10:55.721Z,17.63
2018-01-21T19:13:21.548Z,17.67
2018-01-21T19:15:47.336Z,17.62
2018-01-21T19:18:13.195Z,17.54
2018-01-21T19:20:39.041Z,17.69
2018-01-21T19:23:04.878Z,17.62
2018-01-21T19:25:30.903Z,17.62
2018-01-21T19:27:56.706Z,17.75
2018-01-21T19:30:22.497Z,17.67
2018-01-21T19:32:48.422Z,17.64
2018-01-21T19:35:14.221Z,17.61
2018-01-21T19:37:40.078Z,17.65
2018-01-21T19:43:09.074Z,17.67
2018-01-21T19:45:35.134Z,17.62
2018-01-21T19:48:00.978Z,17.62
2018-01-21T19:50:26.766Z,17.73
2018-01-21T19:52:52.701Z,17.72
2018-01-21T19:55:18.521Z,17.60
2018-01-21T19:57:44.462Z,17.54
2018-01-21T20:00:10.261Z,17.53
2018-01-21T20:02:36.067Z,17.58
2018-01-21T20:05:01.899Z,17.56
2018-01-21T20:07:27.870Z,17.54
2018-01-21T20:09:53.688Z,17.61
2018-01-21T20:12:19.524Z,17.51
2018-01-21T20:14:45.337Z,17.67
2018-01-21T20:17:16.154Z,17.60
2018-01-21T20:19:46.836Z,17.58
2018-01-21T20:22:14.137Z,17.54
2018-01-21T20:24:41.599Z,17.60
2018-01-21T20:27:07.699Z,17.59
2018-01-21T20:29:34.639Z,17.67
2018-01-21T20:32:01.117Z,17.70
2018-01-21T20:34:28.543Z,17.71
2018-01-21T20:36:55.496Z,17.67
2018-01-21T20:39:23.009Z,17.68
2018-01-21T20:41:51.178Z,17.63
2018-01-21T20:44:16.974Z,17.63
2018-01-21T20:46:46.299Z,17.69
2018-01-21T20:49:12.199Z,17.69
2018-01-21T20:51:46.151Z,17.66
2018-01-21T20:56:52.285Z,17.77
2018-01-21T20:59:18.340Z,17.72
2018-01-21T21:01:44.398Z,17.74
2018-01-21T21:04:10.294Z,17.79
2018-01-21T21:06:37.295Z,17.64
2018-01-21T21:09:03.414Z,17.53
2018-01-21T21:11:29.431Z,17.61
2018-01-21T21:13:55.488Z,17.52
2018-01-21T21:16:21.270Z,17.55
2018-01-21T21:18:47.061Z,17.48
2018-01-21T21:21:15.654Z,17.55
2018-01-21T21:23:41.590Z,17.54
2018-01-21T21:26:10.521Z,17.54
2018-01-21T21:28:36.465Z,17.66
2018-01-21T21:31:03.793Z,17.65
2018-01-21T21:33:30.143Z,17.64
2018-01-21T21:35:57.412Z,17.65
2018-01-21T21:38:24.648Z,17.53
2018-01-21T21:40:50.795Z,17.54
2018-01-21T21:43:16.765Z,17.66
2018-01-21T21:45:46.255Z,17.56
2018-01-21T21:48:18.162Z,17.52
2018-01-21T21:50:49.738Z,17.52
2018-01-21T21:53:15.939Z,17.47
2018-01-21T21:55:41.736Z,17.52
2018-01-21T21:58:07.559Z,17.58
2018-01-21T22:00:33.356Z,17.58
2018-01-21T22:02:59.178Z,17.56
2018-01-21T22:05:24.958Z,17.56
2018-01-21T22:07:50.783Z,17.47
2018-01-21T22:10:16.578Z,17.54
2018-01-21T22:12:42.397Z,17.55
2018-01-21T22:15:08.235Z,17.66
2018-01-21T22:17:34.010Z,17.70
2018-01-21T22:19:59.846Z,17.62
2018-01-21T22:22:25.678Z,17.52
2018-01-21T22:24:51.461Z,17.60
2018-01-21T22:27:17.248Z,17.51
2018-01-21T22:29:43.030Z,17.54
2018-01-21T22:32:08.833Z,17.54
2018-01-21T22:34:34.648Z,17.53
2018-01-21T22:37:00.469Z,17.54
2018-01-21T22:39:26.289Z,17.53
2018-01-21T22:41:52.209Z,17.52
2018-01-21T22:44:18.030Z,17.62
2018-01-21T22:46:43.809Z,17.67
2018-01-21T22:49:09.591Z,17.59
2018-01-21T22:51:35.372Z,17.54
2018-01-21T22:54:01.150Z,17.64
2018-01-21T22:56:26.968Z,17.49
2018-01-21T22:58:52.834Z,17.45
2018-01-21T23:01:18.626Z,17.58
2018-01-21T23:03:44.461Z,17.55
2018-01-21T23:06:10.259Z,17.50
2018-01-21T23:08:36.089Z,17.51
2018-01-21T23:11:01.926Z,17.54
2018-01-21T23:13:27.730Z,17.49
2018-01-21T23:15:53.520Z,17.43
2018-01-21T23:18:19.345Z,17.46
2018-01-21T23:20:51.286Z,17.51
2018-01-21T23:23:17.178Z,17.45
2018-01-21T23:25:42.955Z,17.41
2018-01-21T23:28:08.769Z,17.46
2018-01-21T23:30:34.558Z,17.48
2018-01-21T23:33:00.379Z,17.48
2018-01-21T23:35:26.157Z,17.44
2018-01-21T23:37:51.979Z,17.46
2018-01-21T23:40:17.802Z,17.44
2018-01-21T23:42:43.625Z,17.37
2018-01-21T23:45:09.402Z,17.42
2018-01-21T23:47:35.181Z,17.38
2018-01-21T23:50:00.960Z,17.39
2018-01-21T23:52:26.746Z,17.39
2018-01-21T23:54:52.601Z,17.45
2018-01-21T23:57:18.378Z,17.43
2018-01-21T23:59:44.164Z,17.43
